Time;durP1;ratioP1;P1;durP2;ratioP2;P2;SDS_P1;SDS_P2;PMS_P1;PMS_P2;Temp;Humidity;BMP_temperature;BMP_pressure;BME280_temperature;BME280_humidity;BME280_pressure;Samples;Min_cycle;Max_cycle;Signal;HPM_P1;HPM_P2
2022/04/20 00:00:40;;;;;;;6.30;3.72;;;14.10;71.10;;;;;;5054866;28;20023;-84
2022/04/20 00:03:06;;;;;;;6.63;3.92;;;14.30;70.80;;;;;;5036903;28;20045;-81
2022/04/20 00:05:33;;;;;;;8.73;3.67;;;14.50;70.30;;;;;;5054851;28;20481;-82
2022/04/20 00:08:02;;;;;;;5.55;3.60;;;14.20;70.00;;;;;;5054968;28;20037;-84
2022/04/20 00:10:29;;;;;;;6.53;3.35;;;14.20;70.40;;;;;;5054520;28;20029;-83
2022/04/20 00:12:55;;;;;;;7.38;3.85;;;14.40;70.30;;;;;;5054907;28;20036;-84
2022/04/20 00:15:21;;;;;;;14.38;4.10;;;14.40;70.30;;;;;;5054529;28;20108;-82
2022/04/20 00:17:46;;;;;;;6.57;3.40;;;14.40;70.10;;;;;;5054656;28;20029;-82
2022/04/20 00:20:13;;;;;;;7.80;4.00;;;14.40;70.10;;;;;;5054742;28;20025;-82
2022/04/20 00:22:38;;;;;;;6.45;3.72;;;14.60;69.50;;;;;;5054827;28;20021;-83
2022/04/20 00:25:04;;;;;;;6.72;3.75;;;14.30;70.10;;;;;;5054351;28;20029;-79
2022/04/20 00:27:37;;;;;;;9.52;3.95;;;13.80;71.40;;;;;;5054609;28;20025;-84
2022/04/20 00:30:05;;;;;;;7.93;3.83;;;13.90;71.40;;;;;;5054133;28;20021;-82
2022/04/20 00:32:31;;;;;;;8.90;4.35;;;14.10;71.40;;;;;;5036581;28;20080;-82
2022/04/20 00:34:57;;;;;;;11.32;4.15;;;14.00;70.90;;;;;;5036301;28;20075;-82
2022/04/20 00:37:23;;;;;;;7.25;3.38;;;14.00;70.70;;;;;;5054305;28;20035;-83
2022/04/20 00:39:49;;;;;;;6.47;4.07;;;14.00;70.30;;;;;;5054364;28;20071;-84
2022/04/20 00:42:15;;;;;;;9.25;3.78;;;13.80;71.20;;;;;;5054031;28;20029;-80
2022/04/20 00:44:42;;;;;;;15.57;3.72;;;13.70;70.90;;;;;;5054175;28;20052;-83
2022/04/20 00:47:09;;;;;;;5.60;3.45;;;13.90;70.70;;;;;;5054201;28;20043;-82
2022/04/20 00:49:35;;;;;;;12.40;4.28;;;13.80;71.00;;;;;;5036326;28;20029;-83
2022/04/20 00:52:04;;;;;;;7.35;3.70;;;13.50;72.40;;;;;;5036275;28;20095;-82
2022/04/20 00:54:29;;;;;;;8.48;3.85;;;13.60;72.30;;;;;;5036084;28;20051;-84
2022/04/20 00:56:57;;;;;;;9.65;3.88;;;13.60;71.80;;;;;;5035972;28;20064;-82
2022/04/20 00:59:26;;;;;;;15.20;3.63;;;13.80;71.40;;;;;;5036049;28;20136;-81
2022/04/20 01:01:52;;;;;;;6.43;3.95;;;13.80;71.60;;;;;;5053957;28;20432;-80
2022/04/20 01:04:19;;;;;;;6.85;3.70;;;13.70;71.60;;;;;;5035821;28;20024;-84
2022/04/20 01:07:11;;;;;;;6.05;3.70;;;13.60;71.60;;;;;;5053779;28;20064;-80
2022/04/20 01:09:56;;;;;;;7.28;3.97;;;13.80;71.40;;;;;;5053682;28;20151;-82
2022/04/20 01:12:54;;;;;;;8.50;4.25;;;13.80;71.60;;;;;;5013575;28;20045;-80
2022/04/20 01:15:38;;;;;;;7.80;3.95;;;13.60;71.60;;;;;;5053610;28;20025;-83
2022/04/20 01:18:14;;;;;;;13.10;4.72;;;13.60;71.90;;;;;;5053662;28;20040;-82
2022/04/20 01:20:56;;;;;;;9.18;4.25;;;13.30;72.90;;;;;;5035600;28;20021;-84
2022/04/20 01:23:34;;;;;;;6.40;3.42;;;13.30;72.30;;;;;;5035077;28;20029;-81
2022/04/20 01:26:13;;;;;;;9.65;4.20;;;13.40;71.30;;;;;;5035219;28;20029;-83
2022/04/20 01:29:07;;;;;;;7.45;4.60;;;13.30;71.60;;;;;;5015262;28;20033;-81
2022/04/20 01:31:51;;;;;;;8.80;4.10;;;13.50;71.70;;;;;;5035507;28;20048;-82
2022/04/20 01:34:39;;;;;;;6.03;3.83;;;13.70;71.00;;;;;;5052247;28;20379;-84
2022/04/20 01:37:05;;;;;;;4.68;3.78;;;13.50;71.30;;;;;;5051775;28;20053;-84
2022/04/20 01:39:31;;;;;;;12.43;4.13;;;13.60;71.20;;;;;;5014955;28;20022;-84
2022/04/20 01:41:57;;;;;;;8.85;3.90;;;13.60;71.20;;;;;;5015038;28;20033;-84
2022/04/20 01:44:25;;;;;;;14.07;3.95;;;13.60;71.70;;;;;;5015534;28;20071;-83
2022/04/20 01:46:57;;;;;;;5.63;3.55;;;13.50;70.90;;;;;;5016696;28;20040;-82
2022/04/20 01:49:41;;;;;;;6.50;3.25;;;13.50;70.80;;;;;;5035390;28;20079;-82
2022/04/20 01:52:26;;;;;;;5.45;3.70;;;13.40;71.40;;;;;;5038329;28;20406;-84
2022/04/20 01:55:10;;;;;;;7.18;3.53;;;13.40;71.50;;;;;;5052716;28;20102;-84
2022/04/20 01:57:55;;;;;;;8.65;4.07;;;13.20;71.60;;;;;;5052925;28;20403;-83
2022/04/20 02:00:43;;;;;;;7.75;3.85;;;13.00;72.00;;;;;;5035038;28;20021;-85
2022/04/20 02:03:32;;;;;;;7.05;4.28;;;13.00;72.20;;;;;;5052505;28;20128;-84
2022/04/20 02:06:10;;;;;;;7.68;3.10;;;13.00;72.40;;;;;;5035050;28;20389;-83
2022/04/20 02:08:51;;;;;;;;;;;12.90;72.50;;;;;;5035832;28;20032;-82
2022/04/20 02:11:23;;;;;;;11.60;4.07;;;12.90;72.90;;;;;;5034474;28;19917;-83
2022/04/20 02:13:59;;;;;;;7.40;4.32;;;13.20;72.10;;;;;;5035056;28;20116;-83
2022/04/20 02:16:25;;;;;;;7.85;3.95;;;13.20;71.60;;;;;;5034777;28;20108;-83
2022/04/20 02:19:06;;;;;;;5.88;3.70;;;13.10;72.10;;;;;;5053107;28;20029;-83
2022/04/20 02:21:35;;;;;;;8.18;3.35;;;12.90;72.70;;;;;;5052641;28;20068;-84
2022/04/20 02:24:00;;;;;;;7.10;4.05;;;12.90;72.70;;;;;;5034637;28;20478;-84
2022/04/20 02:26:26;;;;;;;16.65;4.90;;;12.70;72.90;;;;;;5052621;28;20035;-83
2022/04/20 02:28:52;;;;;;;7.72;3.60;;;12.70;72.90;;;;;;5052767;28;20036;-81
2022/04/20 02:31:18;;;;;;;7.20;3.47;;;12.90;72.40;;;;;;5052807;28;20422;-83
2022/04/20 02:33:43;;;;;;;5.35;3.28;;;12.80;72.20;;;;;;5019141;28;20357;-83
2022/04/20 02:36:10;;;;;;;8.82;3.60;;;12.50;72.90;;;;;;5038804;28;20470;-83
2022/04/20 02:38:36;;;;;;;7.85;3.20;;;12.50;73.00;;;;;;5038608;28;20461;-83
2022/04/20 02:41:02;;;;;;;13.77;3.20;;;12.20;73.60;;;;;;5056783;28;20021;-84
2022/04/20 02:43:28;;;;;;;8.15;3.15;;;12.10;74.20;;;;;;5056569;28;20041;-83
2022/04/20 02:45:57;;;;;;;9.40;3.55;;;12.30;74.20;;;;;;5056516;28;20056;-82
2022/04/20 02:48:22;;;;;;;3.90;3.38;;;12.20;74.30;;;;;;5018636;28;20393;-81
2022/04/20 02:50:48;;;;;;;6.40;3.22;;;12.20;74.40;;;;;;5036601;28;20031;-83
2022/04/20 02:53:14;;;;;;;6.38;3.40;;;12.30;74.10;;;;;;5036187;28;20478;-84
2022/04/20 02:55:42;;;;;;;6.03;3.28;;;12.20;74.20;;;;;;5018808;28;20506;-83
2022/04/20 02:58:09;;;;;;;10.50;3.58;;;12.10;74.30;;;;;;5018409;28;20072;-84
2022/04/20 03:00:38;;;;;;;10.73;3.83;;;12.20;74.40;;;;;;5018763;28;20018;-84
2022/04/20 03:03:17;;;;;;;6.35;3.80;;;12.30;73.90;;;;;;5028855;28;20086;-83
2022/04/20 03:05:43;;;;;;;7.10;3.55;;;12.00;75.00;;;;;;5038119;28;20025;-83
2022/04/20 03:08:10;;;;;;;5.82;3.17;;;11.80;75.20;;;;;;5056128;28;20076;-85
2022/04/20 03:10:36;;;;;;;10.68;3.08;;;11.80;75.50;;;;;;5039662;28;20029;-83
2022/04/20 03:13:02;;;;;;;7.15;3.45;;;11.80;75.40;;;;;;5038232;28;20021;-83
2022/04/20 03:15:28;;;;;;;8.88;3.22;;;11.80;75.30;;;;;;5038390;28;20033;-83
2022/04/20 03:17:57;;;;;;;6.75;3.45;;;12.00;75.10;;;;;;5037997;28;20442;-85
2022/04/20 03:20:23;;;;;;;7.05;3.55;;;11.80;75.00;;;;;;5038266;28;20358;-82
2022/04/20 03:22:49;;;;;;;6.10;4.03;;;11.60;75.90;;;;;;5037902;28;20017;-83
2022/04/20 03:25:15;;;;;;;7.47;3.30;;;11.40;76.90;;;;;;5037920;28;20025;-85
2022/04/20 03:27:52;;;;;;;6.25;3.38;;;11.50;76.70;;;;;;5055804;28;20418;-82
2022/04/20 03:30:19;;;;;;;5.80;3.70;;;11.50;76.70;;;;;;5038007;28;20071;-84
2022/04/20 03:32:45;;;;;;;8.50;4.07;;;11.60;76.80;;;;;;5055537;28;20075;-84
2022/04/20 03:35:11;;;;;;;6.00;3.72;;;11.50;76.80;;;;;;5038064;28;20485;-84
2022/04/20 03:37:37;;;;;;;13.32;3.42;;;11.40;76.80;;;;;;5055409;28;20108;-84
2022/04/20 03:40:05;;;;;;;8.02;3.67;;;11.10;77.60;;;;;;5037688;28;20053;-84
2022/04/20 03:42:31;;;;;;;5.70;3.70;;;11.10;78.30;;;;;;5037615;28;20440;-85
2022/04/20 03:44:57;;;;;;;5.95;3.53;;;11.10;78.10;;;;;;5055441;28;20037;-85
2022/04/20 03:47:23;;;;;;;8.93;3.50;;;11.10;77.90;;;;;;5054677;28;20017;-85
2022/04/20 03:49:48;;;;;;;5.13;3.50;;;11.00;78.40;;;;;;5055293;28;20036;-85
2022/04/20 03:52:14;;;;;;;6.45;3.40;;;11.10;78.40;;;;;;5037267;28;20120;-84
2022/04/20 03:54:40;;;;;;;5.65;3.58;;;11.10;78.20;;;;;;5037338;28;20409;-85
2022/04/20 03:57:07;;;;;;;8.20;3.72;;;11.10;78.50;;;;;;5037353;28;20033;-83
2022/04/20 03:59:42;;;;;;;7.93;3.55;;;11.10;78.60;;;;;;5037194;28;20017;-84
2022/04/20 04:02:10;;;;;;;11.43;3.97;;;11.00;78.70;;;;;;5037107;28;20029;-85
2022/04/20 04:04:56;;;;;;;8.27;4.53;;;11.10;78.60;;;;;;5039628;28;20071;-85
2022/04/20 04:08:01;;;;;;;8.13;3.63;;;11.10;79.10;;;;;;4954877;29;20051;-84
2022/04/20 04:10:31;;;;;;;10.02;4.15;;;11.10;79.00;;;;;;4938752;29;20054;-84
2022/04/20 04:12:57;;;;;;;10.88;4.70;;;11.00;78.90;;;;;;4987657;28;20048;-84
2022/04/20 04:15:24;;;;;;;13.60;3.97;;;11.00;79.70;;;;;;5037439;28;20025;-84
2022/04/20 04:17:54;;;;;;;10.95;4.18;;;10.90;79.10;;;;;;5036920;28;20043;-86
2022/04/20 04:20:23;;;;;;;8.18;3.67;;;10.90;79.60;;;;;;5036675;28;20043;-85
2022/04/20 04:22:50;;;;;;;7.35;3.85;;;10.70;79.70;;;;;;5037015;28;20036;-84
2022/04/20 04:25:33;;;;;;;8.27;4.20;;;10.80;80.10;;;;;;5036803;28;20111;-81
2022/04/20 04:27:58;;;;;;;10.88;4.07;;;10.70;80.00;;;;;;5036725;28;20124;-84
2022/04/20 04:30:26;;;;;;;11.60;4.60;;;10.80;80.10;;;;;;5036969;28;20370;-84
2022/04/20 04:33:03;;;;;;;9.25;4.38;;;10.80;80.10;;;;;;5036864;28;20063;-83
2022/04/20 04:35:31;;;;;;;11.70;3.90;;;10.80;80.20;;;;;;5036068;28;20092;-84
2022/04/20 04:37:57;;;;;;;8.73;3.85;;;10.80;80.30;;;;;;5036694;28;20032;-84
2022/04/20 04:40:26;;;;;;;11.80;4.00;;;10.70;80.20;;;;;;5020486;28;20044;-84
2022/04/20 04:42:53;;;;;;;6.03;3.70;;;10.70;79.80;;;;;;5036425;28;20031;-83
2022/04/20 04:50:56;;;;;;;5.93;3.70;;;10.90;79.60;;;;;;5036032;28;20103;-84
2022/04/20 04:53:22;;;;;;;14.20;3.95;;;10.80;80.30;;;;;;5036568;28;20469;-85
2022/04/20 04:55:48;;;;;;;8.38;3.75;;;10.70;80.80;;;;;;5035996;28;20079;-83
2022/04/20 04:58:14;;;;;;;9.07;4.15;;;10.80;80.40;;;;;;5035310;28;20074;-85
2022/04/20 05:00:40;;;;;;;8.27;4.07;;;10.70;80.80;;;;;;5036089;28;20111;-84
2022/04/20 05:03:20;;;;;;;10.68;4.47;;;10.50;81.60;;;;;;5036065;28;20384;-85
2022/04/20 05:05:47;;;;;;;7.90;3.58;;;10.50;81.80;;;;;;5035486;28;20025;-84
2022/04/20 05:08:14;;;;;;;6.20;3.85;;;10.60;81.80;;;;;;5036178;28;20025;-84
2022/04/20 05:10:40;;;;;;;8.38;4.40;;;10.70;81.20;;;;;;5036028;28;20059;-84
2022/04/20 05:13:07;;;;;;;8.65;4.35;;;10.50;81.40;;;;;;5036385;28;20511;-84
2022/04/20 05:15:34;;;;;;;5.35;3.50;;;10.50;82.50;;;;;;5035907;28;20025;-82
2022/04/20 05:18:01;;;;;;;6.25;3.83;;;10.60;81.90;;;;;;5035454;28;20025;-82
2022/04/20 05:20:27;;;;;;;14.50;4.40;;;10.80;81.40;;;;;;5035665;28;20029;-83
2022/04/20 05:22:54;;;;;;;9.07;3.92;;;10.80;81.20;;;;;;5035756;28;20025;-83
2022/04/20 05:25:22;;;;;;;6.93;4.38;;;10.80;80.90;;;;;;5035674;28;20021;-83
2022/04/20 05:27:48;;;;;;;8.65;4.45;;;10.80;81.20;;;;;;5035551;28;20444;-84
2022/04/20 05:30:18;;;;;;;5.65;3.70;;;10.90;80.80;;;;;;5035300;28;20031;-84
2022/04/20 05:32:45;;;;;;;14.60;4.07;;;11.00;80.20;;;;;;5035151;28;20034;-84
2022/04/20 05:35:16;;;;;;;11.63;4.55;;;11.10;80.10;;;;;;5035646;28;20025;-84
2022/04/20 05:43:19;;;;;;;9.23;4.47;;;11.60;78.30;;;;;;5053320;28;20033;-83
2022/04/20 05:45:46;;;;;;;8.75;4.43;;;11.70;78.00;;;;;;5035315;28;20052;-84
2022/04/20 05:48:25;;;;;;;7.38;3.58;;;11.70;78.10;;;;;;5034937;28;20032;-84
2022/04/20 05:50:51;;;;;;;12.35;4.47;;;11.80;78.10;;;;;;5035348;28;20029;-82
2022/04/20 05:53:20;;;;;;;8.32;4.50;;;11.80;78.00;;;;;;5035394;28;20078;-83
2022/04/20 05:55:46;;;;;;;11.43;4.25;;;11.70;78.00;;;;;;5034971;28;20056;-84
2022/04/20 05:58:12;;;;;;;16.10;4.63;;;11.60;78.60;;;;;;5035151;28;20083;-84
2022/04/20 06:00:40;;;;;;;9.48;4.32;;;11.50;79.10;;;;;;5034888;28;20055;-84
2022/04/20 06:03:29;;;;;;;10.35;4.32;;;11.30;79.70;;;;;;5052736;28;20521;-85
2022/04/20 06:06:03;;;;;;;13.57;4.30;;;11.50;79.50;;;;;;5034898;28;20068;-85
2022/04/20 06:08:42;;;;;;;12.23;4.63;;;11.40;79.90;;;;;;5034621;28;20111;-82
2022/04/20 06:11:28;;;;;;;16.30;4.07;;;11.30;81.00;;;;;;5052817;28;20163;-85
2022/04/20 06:13:54;;;;;;;14.68;4.38;;;11.50;80.50;;;;;;5034851;28;20031;-83
2022/04/20 06:16:43;;;;;;;13.95;5.38;;;11.70;79.40;;;;;;5041801;28;20060;-84
2022/04/20 06:19:10;;;;;;;11.88;4.47;;;11.80;78.90;;;;;;5035635;28;20025;-83
2022/04/20 06:21:45;;;;;;;16.05;4.78;;;11.80;78.30;;;;;;5034540;28;20492;-83
2022/04/20 06:24:18;;;;;;;10.98;3.85;;;11.90;78.60;;;;;;5020618;28;20021;-81
2022/04/20 06:27:13;;;;;;;10.98;4.35;;;12.10;79.00;;;;;;4981749;28;20043;-84
2022/04/20 06:30:02;;;;;;;11.38;5.35;;;12.10;78.20;;;;;;5042025;28;20081;-82
2022/04/20 06:32:50;;;;;;;7.57;4.70;;;12.40;77.90;;;;;;5038186;28;20499;-83
2022/04/20 06:35:36;;;;;;;12.55;4.82;;;12.10;77.50;;;;;;5012169;28;20420;-84
2022/04/20 06:38:13;;;;;;;13.32;5.25;;;12.20;77.50;;;;;;5034819;28;20087;-84
2022/04/20 06:40:58;;;;;;;16.08;4.40;;;12.20;76.50;;;;;;5052496;28;20040;-83
2022/04/20 06:43:41;;;;;;;8.15;4.20;;;12.30;76.70;;;;;;5034794;28;20037;-85
2022/04/20 06:46:25;;;;;;;12.07;4.30;;;12.30;75.90;;;;;;5052386;28;20397;-85
2022/04/20 06:49:22;;;;;;;8.05;4.32;;;12.40;75.90;;;;;;5011136;28;20069;-84
2022/04/20 07:00:28;;;;;;;14.20;4.25;;;13.00;75.30;;;;;;5030489;28;20529;-82
2022/04/20 07:03:20;;;;;;;11.15;4.65;;;13.00;75.50;;;;;;5043612;28;20037;-85
2022/04/20 07:06:21;;;;;;;25.10;5.65;;;12.90;75.10;;;;;;5027693;28;20045;-84
2022/04/20 07:09:04;;;;;;;13.30;5.18;;;12.80;75.30;;;;;;5030788;28;20025;-86
2022/04/20 07:11:39;;;;;;;10.75;4.88;;;12.90;76.00;;;;;;5048784;28;20041;-85
2022/04/20 07:14:06;;;;;;;10.10;4.95;;;13.10;75.30;;;;;;5030423;28;20055;-85
2022/04/20 07:16:32;;;;;;;13.85;5.22;;;13.40;74.90;;;;;;5030394;28;20041;-83
2022/04/20 07:19:06;;;;;;;9.18;4.32;;;13.70;75.00;;;;;;5030760;28;20433;-84
2022/04/20 07:21:40;;;;;;;12.30;4.40;;;13.90;74.60;;;;;;5037173;28;20032;-85
2022/04/20 07:24:26;;;;;;;6.60;4.35;;;13.90;73.50;;;;;;5013453;28;20033;-82
2022/04/20 07:26:58;;;;;;;9.45;4.20;;;13.90;74.10;;;;;;5041008;28;20032;-81
2022/04/20 07:29:28;;;;;;;23.17;4.68;;;13.90;73.80;;;;;;5044258;28;20031;-83
2022/04/20 07:32:26;;;;;;;15.57;4.60;;;14.00;73.40;;;;;;5039993;28;20079;-82
2022/04/20 07:35:12;;;;;;;13.20;4.75;;;14.20;72.60;;;;;;5042277;28;20052;-82
2022/04/20 07:38:06;;;;;;;12.10;4.80;;;14.20;73.30;;;;;;5037433;28;20158;-82
2022/04/20 07:40:50;;;;;;;13.35;4.55;;;14.10;72.70;;;;;;5035328;28;20107;-83
2022/04/20 07:43:38;;;;;;;13.20;4.97;;;14.10;73.80;;;;;;5036908;28;20082;-82
2022/04/20 07:46:30;;;;;;;10.25;4.43;;;14.10;72.70;;;;;;5057013;28;20132;-83
2022/04/20 07:52:23;;;;;;;18.60;4.83;;;14.70;71.90;;;;;;5049805;28;20048;-81
2022/04/20 07:55:10;;;;;;;9.02;4.88;;;15.30;70.30;;;;;;5039530;28;20120;-81
2022/04/20 07:57:45;;;;;;;12.55;4.07;;;15.40;70.20;;;;;;5042119;28;20029;-84
2022/04/20 08:00:30;;;;;;;10.27;4.35;;;15.60;69.40;;;;;;5068417;28;20120;-84
2022/04/20 08:03:19;;;;;;;11.25;3.80;;;15.70;69.10;;;;;;5063573;28;20037;-83
2022/04/20 08:05:51;;;;;;;9.02;4.05;;;16.00;68.40;;;;;;5036962;28;20056;-81
2022/04/20 08:08:17;;;;;;;8.73;3.88;;;16.10;68.10;;;;;;5042656;28;20384;-84
2022/04/20 08:10:43;;;;;;;28.52;4.68;;;16.40;66.40;;;;;;5056000;28;20029;-84
2022/04/20 08:15:57;;;;;;;7.40;3.97;;;16.40;67.50;;;;;;5054456;28;20036;-84
2022/04/20 08:18:29;;;;;;;12.57;5.35;;;15.90;68.30;;;;;;5054768;28;20557;-86
2022/04/20 08:21:13;;;;;;;11.38;4.45;;;15.90;68.70;;;;;;5073384;28;20040;-84
2022/04/20 08:23:39;;;;;;;9.82;4.30;;;16.20;67.90;;;;;;5074149;28;20020;-84
2022/04/20 08:26:05;;;;;;;8.88;5.03;;;16.40;66.30;;;;;;5047569;28;20420;-84
2022/04/20 08:28:31;;;;;;;9.25;4.22;;;16.10;68.40;;;;;;5054539;28;20017;-85
2022/04/20 08:30:56;;;;;;;8.07;4.05;;;16.20;68.20;;;;;;5054743;28;20373;-85
2022/04/20 08:33:22;;;;;;;7.57;4.15;;;16.00;69.50;;;;;;5063730;28;20436;-84
2022/04/20 08:35:48;;;;;;;9.07;3.85;;;15.90;67.50;;;;;;5074817;28;20031;-84
2022/04/20 08:38:15;;;;;;;7.22;3.97;;;15.80;66.80;;;;;;5058045;28;20439;-84
2022/04/20 08:40:42;;;;;;;9.45;3.85;;;15.20;69.00;;;;;;5077346;28;20436;-85
2022/04/20 08:43:11;;;;;;;9.77;5.22;;;15.50;69.10;;;;;;5077693;28;20024;-84
2022/04/20 08:45:39;;;;;;;8.55;3.85;;;15.60;68.40;;;;;;5076002;28;20029;-83
2022/04/20 08:48:06;;;;;;;13.18;4.15;;;15.60;68.40;;;;;;5061993;28;20035;-85
2022/04/20 08:50:32;;;;;;;10.32;3.97;;;15.60;68.60;;;;;;5062812;28;20036;-85
2022/04/20 08:52:58;;;;;;;8.52;4.03;;;15.90;68.50;;;;;;5072768;28;20036;-85
2022/04/20 08:55:25;;;;;;;14.23;5.28;;;15.80;67.90;;;;;;5078084;28;20028;-84
2022/04/20 08:57:55;;;;;;;6.63;4.13;;;15.70;68.50;;;;;;5056178;28;20028;-78
2022/04/20 09:00:26;;;;;;;10.23;4.10;;;16.00;67.90;;;;;;5074013;28;20024;-85
2022/04/20 09:02:55;;;;;;;8.37;4.17;;;15.80;67.40;;;;;;5049655;28;20079;-85
2022/04/20 09:05:25;;;;;;;7.80;4.00;;;15.80;69.70;;;;;;5036225;28;20048;-85
2022/04/20 09:07:52;;;;;;;8.77;4.70;;;15.90;67.50;;;;;;5053812;28;20304;-85
2022/04/20 09:10:18;;;;;;;13.73;3.92;;;16.00;68.00;;;;;;5053511;28;20027;-83
2022/04/20 09:12:45;;;;;;;9.32;4.38;;;16.00;69.30;;;;;;5035994;28;20037;-85
2022/04/20 09:15:14;;;;;;;5.47;3.88;;;16.60;67.30;;;;;;5053994;28;20048;-83
2022/04/20 09:17:45;;;;;;;6.43;4.00;;;16.40;66.60;;;;;;5036265;28;20120;-83
2022/04/20 09:20:18;;;;;;;12.30;4.10;;;16.80;66.30;;;;;;5055446;28;20033;-83
2022/04/20 09:23:04;;;;;;;9.50;3.88;;;17.00;66.10;;;;;;5053680;28;20067;-81
2022/04/20 09:25:35;;;;;;;7.68;4.30;;;17.00;65.90;;;;;;5047970;28;20120;-84
2022/04/20 09:28:02;;;;;;;6.00;3.38;;;17.40;64.90;;;;;;5064462;28;20096;-83
2022/04/20 09:30:36;;;;;;;12.63;4.03;;;17.80;65.70;;;;;;5068467;28;20031;-80
2022/04/20 09:33:06;;;;;;;10.60;4.43;;;17.50;64.50;;;;;;5040777;28;20068;-80
2022/04/20 09:35:50;;;;;;;6.18;4.03;;;17.50;63.70;;;;;;5065119;28;20040;-84
2022/04/20 09:38:21;;;;;;;13.30;3.58;;;17.40;64.00;;;;;;5032524;28;20029;-84
2022/04/20 09:41:06;;;;;;;12.30;4.10;;;17.80;65.30;;;;;;5069715;28;20040;-82
2022/04/20 09:43:32;;;;;;;9.45;3.08;;;17.70;64.30;;;;;;5070535;28;20131;-85
2022/04/20 09:48:50;;;;;;;5.95;3.67;;;17.70;63.10;;;;;;5055524;28;20096;-85
2022/04/20 09:48:51;;;;;;;13.00;4.88;;;17.60;64.00;;;;;;5056054;28;20059;-86
2022/04/20 09:51:21;;;;;;;7.07;3.67;;;17.40;64.00;;;;;;5052672;28;20035;-84
2022/04/20 09:53:50;;;;;;;7.78;3.95;;;17.50;65.20;;;;;;5069333;28;20046;-85
2022/04/20 09:56:18;;;;;;;8.30;3.63;;;17.30;64.30;;;;;;5073219;28;20021;-83
2022/04/20 09:58:45;;;;;;;8.77;3.97;;;17.70;64.60;;;;;;5073459;28;20029;-82
2022/04/20 10:01:30;;;;;;;11.75;3.58;;;17.70;65.10;;;;;;5072993;28;20097;-84
2022/04/20 10:03:58;;;;;;;6.90;3.63;;;18.30;65.30;;;;;;5057695;28;20498;-83
2022/04/20 10:06:24;;;;;;;6.55;3.42;;;18.10;64.80;;;;;;5036933;28;20036;-83
2022/04/20 10:08:50;;;;;;;7.93;4.10;;;17.90;64.40;;;;;;5055609;28;20018;-85
2022/04/20 10:11:16;;;;;;;8.07;4.03;;;18.20;64.70;;;;;;5074680;28;20028;-83
2022/04/20 10:13:42;;;;;;;6.75;3.63;;;18.80;63.70;;;;;;5074573;28;20039;-83
2022/04/20 10:16:11;;;;;;;10.70;3.92;;;18.90;64.00;;;;;;5025455;28;20499;-84
2022/04/20 10:18:40;;;;;;;6.57;3.60;;;19.40;64.80;;;;;;5052948;28;20060;-85
2022/04/20 10:21:13;;;;;;;8.35;3.33;;;19.70;63.10;;;;;;5052343;28;20025;-84
2022/04/20 10:23:47;;;;;;;11.95;4.13;;;19.30;62.40;;;;;;5053322;28;20059;-80
2022/04/20 10:26:16;;;;;;;7.07;3.20;;;19.10;64.00;;;;;;5053146;28;20061;-86
2022/04/20 10:28:55;;;;;;;11.38;3.38;;;19.50;62.00;;;;;;5052825;28;20392;-85
2022/04/20 10:31:34;;;;;;;4.68;2.50;;;19.40;62.80;;;;;;5052472;28;20041;-81
2022/04/20 10:34:04;;;;;;;11.25;2.70;;;19.40;62.00;;;;;;5034976;28;20074;-84
2022/04/20 10:37:04;;;;;;;4.88;2.28;;;19.40;62.20;;;;;;5017183;28;20037;-84
2022/04/20 10:39:41;;;;;;;8.52;3.10;;;19.60;62.00;;;;;;5034917;28;20382;-84
2022/04/20 10:42:14;;;;;;;7.53;3.00;;;19.80;61.60;;;;;;5033908;28;20115;-85
2022/04/20 10:44:59;;;;;;;7.53;3.00;;;19.30;61.10;;;;;;5053129;28;20033;-86
2022/04/20 10:47:32;;;;;;;5.25;2.92;;;19.30;62.20;;;;;;5052569;28;20067;-85
2022/04/20 10:50:21;;;;;;;9.55;3.28;;;19.70;61.90;;;;;;5035228;28;20036;-82
2022/04/20 10:52:52;;;;;;;7.00;3.10;;;19.60;62.10;;;;;;5052423;28;20497;-87
2022/04/20 10:55:41;;;;;;;6.22;2.88;;;19.70;59.90;;;;;;5035388;28;20120;-85
2022/04/20 10:58:18;;;;;;;8.20;3.53;;;19.80;61.80;;;;;;5057230;28;20102;-85
2022/04/20 11:00:44;;;;;;;10.48;2.88;;;20.50;62.00;;;;;;5056448;28;20048;-84
2022/04/20 11:03:12;;;;;;;5.18;3.35;;;20.80;61.20;;;;;;5056145;28;20032;-86
2022/04/20 11:05:55;;;;;;;9.15;3.78;;;20.70;61.10;;;;;;5056962;28;20056;-82
2022/04/20 11:08:24;;;;;;;10.48;3.50;;;20.10;62.30;;;;;;5038404;28;20473;-86
2022/04/20 11:18:38;;;;;;;7.43;3.15;;;20.60;60.90;;;;;;5056253;28;20048;-84
2022/04/20 11:19:20;;;;;;;9.93;3.88;;;21.10;59.50;;;;;;5037361;28;20115;-83
2022/04/20 11:21:54;;;;;;;8.55;3.30;;;20.80;60.40;;;;;;5053752;28;20032;-82
2022/04/20 11:24:29;;;;;;;6.32;3.78;;;20.00;59.80;;;;;;5055116;28;20052;-85
2022/04/20 11:26:56;;;;;;;9.68;3.83;;;20.40;60.80;;;;;;5056543;28;20032;-86
2022/04/20 11:29:25;;;;;;;7.63;3.90;;;20.50;61.00;;;;;;5055632;28;20051;-86
2022/04/20 11:31:54;;;;;;;4.25;3.17;;;20.20;61.60;;;;;;5056084;28;20036;-85
2022/04/20 11:34:21;;;;;;;5.30;3.22;;;20.50;61.90;;;;;;5021351;28;20025;-86
2022/04/20 11:36:51;;;;;;;10.00;4.15;;;20.70;60.20;;;;;;5055575;28;20045;-87
2022/04/20 11:39:18;;;;;;;14.95;3.72;;;20.90;61.90;;;;;;5055517;28;20363;-87
2022/04/20 11:41:51;;;;;;;6.30;3.72;;;21.40;63.40;;;;;;5055509;28;20409;-87
2022/04/20 11:44:28;;;;;;;5.43;3.38;;;20.90;61.10;;;;;;5037658;28;20063;-87
2022/04/20 11:47:02;;;;;;;7.65;3.67;;;20.70;61.30;;;;;;5037413;28;20527;-86
2022/04/20 11:49:48;;;;;;;12.15;4.25;;;20.90;61.20;;;;;;5052373;28;20032;-87
2022/04/20 11:52:18;;;;;;;6.05;3.78;;;21.10;60.90;;;;;;5045399;28;20040;-85
2022/04/20 11:54:47;;;;;;;8.15;3.83;;;21.00;61.10;;;;;;5057329;28;20031;-87
2022/04/20 11:57:19;;;;;;;6.85;3.67;;;21.50;61.70;;;;;;5055662;28;20423;-86
2022/04/20 11:59:50;;;;;;;6.57;3.75;;;21.60;60.80;;;;;;5074880;28;20082;-86
2022/04/20 12:02:18;;;;;;;6.45;3.03;;;22.20;60.60;;;;;;5055133;28;20123;-85
2022/04/20 12:04:46;;;;;;;6.97;3.60;;;21.60;61.00;;;;;;5037249;28;20090;-84
2022/04/20 12:07:14;;;;;;;7.82;3.58;;;21.20;60.20;;;;;;5051500;28;20029;-87
2022/04/20 12:09:43;;;;;;;6.03;3.75;;;20.80;61.30;;;;;;5074956;28;20173;-82
2022/04/20 12:12:12;;;;;;;9.02;3.80;;;20.90;60.20;;;;;;5075242;28;20044;-81
2022/04/20 12:14:39;;;;;;;12.93;4.20;;;20.80;60.40;;;;;;5056695;28;20060;-81
2022/04/20 12:17:10;;;;;;;8.70;3.35;;;20.50;60.10;;;;;;5075404;28;20023;-81
2022/04/20 12:19:38;;;;;;;5.07;3.00;;;19.90;61.60;;;;;;5045186;28;20385;-83
2022/04/20 12:22:09;;;;;;;11.00;3.65;;;20.30;62.30;;;;;;5054878;28;20025;-85
2022/04/20 12:24:36;;;;;;;7.88;3.83;;;20.60;62.30;;;;;;5054598;28;20033;-84
2022/04/20 12:27:02;;;;;;;8.23;3.60;;;20.60;62.30;;;;;;5056994;28;20112;-86
2022/04/20 12:29:30;;;;;;;8.13;3.38;;;20.50;62.40;;;;;;5055951;28;20117;-85
2022/04/20 12:31:56;;;;;;;7.65;3.13;;;21.70;61.50;;;;;;5062119;28;20044;-84
2022/04/20 12:34:28;;;;;;;6.78;3.50;;;22.10;60.00;;;;;;5075120;28;20032;-84
2022/04/20 12:37:04;;;;;;;7.85;3.25;;;21.70;59.70;;;;;;5057627;28;20539;-86
2022/04/20 12:39:33;;;;;;;12.57;3.13;;;21.60;60.10;;;;;;5074706;28;20437;-85
2022/04/20 12:42:09;;;;;;;12.73;4.00;;;22.00;60.00;;;;;;5074599;28;20032;-85
2022/04/20 12:44:40;;;;;;;12.85;3.40;;;22.00;60.60;;;;;;5074022;28;20496;-84
2022/04/20 12:47:11;;;;;;;10.70;3.60;;;22.90;60.20;;;;;;5071745;28;20065;-82
2022/04/20 12:49:38;;;;;;;7.03;3.70;;;22.30;60.00;;;;;;5035804;28;20033;-87
2022/04/20 12:52:10;;;;;;;10.32;3.75;;;23.60;59.80;;;;;;5036383;28;20037;-76
2022/04/20 12:54:36;;;;;;;12.75;3.60;;;24.60;59.00;;;;;;5054158;28;20025;-80
2022/04/20 13:02:57;;;;;;;14.48;3.80;;;24.00;57.60;;;;;;5039151;28;20116;-86
2022/04/20 13:05:24;;;;;;;10.30;2.90;;;24.60;58.50;;;;;;5037783;28;20033;-87
2022/04/20 13:07:50;;;;;;;6.97;3.90;;;24.60;57.40;;;;;;5074644;28;20025;-85
2022/04/20 13:10:16;;;;;;;9.00;3.72;;;24.90;57.70;;;;;;5075003;28;20025;-85
2022/04/20 13:12:53;;;;;;;9.27;3.47;;;25.90;58.00;;;;;;5057384;28;20056;-85
2022/04/20 13:15:24;;;;;;;10.00;4.22;;;25.40;56.90;;;;;;5056259;28;20191;-85
2022/04/20 13:17:53;;;;;;;9.40;3.97;;;26.00;57.20;;;;;;5073979;28;20024;-84
2022/04/20 13:20:22;;;;;;;4.88;3.15;;;26.60;55.80;;;;;;5056587;28;20381;-79
2022/04/20 13:22:48;;;;;;;6.93;3.72;;;27.20;55.80;;;;;;5054059;28;20029;-85
2022/04/20 13:27:58;;;;;;;5.38;3.35;;;26.50;56.60;;;;;;5035870;28;20029;-86
2022/04/20 13:30:28;;;;;;;6.88;3.75;;;27.80;55.70;;;;;;5053411;28;20049;-87
2022/04/20 13:32:57;;;;;;;8.55;3.78;;;27.40;55.60;;;;;;5053419;28;20098;-85
2022/04/20 13:35:25;;;;;;;6.03;3.58;;;28.20;54.60;;;;;;5053451;28;20366;-84
2022/04/20 13:37:52;;;;;;;7.88;3.70;;;28.20;56.00;;;;;;5053361;28;20063;-86
2022/04/20 13:40:18;;;;;;;6.13;3.42;;;29.00;54.90;;;;;;5053168;28;20024;-87
2022/04/20 13:42:44;;;;;;;10.35;3.85;;;29.10;54.30;;;;;;5053147;28;20043;-85
2022/04/20 13:45:09;;;;;;;6.72;3.17;;;27.20;56.40;;;;;;5053082;28;20017;-85
2022/04/20 13:47:35;;;;;;;7.97;3.78;;;27.80;55.50;;;;;;5052805;28;20037;-84